createdAt,value
2022-09-12T00:01:11.895Z,89.74
2022-09-12T00:03:39.391Z,90.39
2022-09-12T00:06:23.135Z,91.44
2022-09-12T00:08:51.547Z,90.35
2022-09-12T00:11:18.206Z,90.58
2022-09-12T00:13:44.897Z,89.45
2022-09-12T00:16:16.756Z,89.68
2022-09-12T00:18:45.067Z,89.23
2022-09-12T00:21:11.546Z,89.70
2022-09-12T00:23:37.979Z,89.63
2022-09-12T00:26:06.639Z,89.19
2022-09-12T00:28:35.898Z,89.68
2022-09-12T00:31:06.699Z,88.93
2022-09-12T00:33:34.194Z,90.04
2022-09-12T00:36:05.515Z,90.74
2022-09-12T00:38:32.627Z,89.76
2022-09-12T00:40:59.017Z,91.10
2022-09-12T00:43:42.403Z,92.05
2022-09-12T00:46:39.633Z,91.17
2022-09-12T00:49:14.000Z,91.31
2022-09-12T00:51:46.525Z,89.76
2022-09-12T00:54:17.223Z,89.96
2022-09-12T00:56:46.594Z,89.10
2022-09-12T00:59:18.637Z,88.77
2022-09-12T01:01:48.538Z,88.59
2022-09-12T01:04:17.814Z,88.71
2022-09-12T01:06:44.733Z,88.42
2022-09-12T01:09:17.160Z,88.45
2022-09-12T01:11:46.909Z,87.60
2022-09-12T01:14:15.472Z,89.64
2022-09-12T01:16:42.503Z,89.61
2022-09-12T01:19:33.118Z,90.38
2022-09-12T01:22:26.669Z,89.16
2022-09-12T01:25:16.519Z,89.09
2022-09-12T01:27:53.408Z,89.34
2022-09-12T01:30:55.822Z,90.19
2022-09-12T01:33:35.878Z,90.85
2022-09-12T01:36:21.340Z,90.11
2022-09-12T01:38:54.324Z,89.96
2022-09-12T01:41:28.567Z,89.66
2022-09-12T01:44:01.622Z,90.37
2022-09-12T01:46:39.765Z,90.21
2022-09-12T01:49:42.727Z,90.42
2022-09-12T01:52:09.037Z,90.90
2022-09-12T01:54:40.322Z,91.29
2022-09-12T01:57:14.182Z,90.27
2022-09-12T01:59:45.400Z,89.78
2022-09-12T02:02:17.455Z,90.04
2022-09-12T02:04:52.635Z,89.20
2022-09-12T02:07:38.760Z,90.72
2022-09-12T02:10:20.027Z,90.08
2022-09-12T02:12:52.640Z,89.30
2022-09-12T02:15:23.638Z,89.27
2022-09-12T02:17:52.840Z,89.82
2022-09-12T02:20:47.396Z,90.62
2022-09-12T02:23:21.910Z,91.85
2022-09-12T02:25:54.723Z,91.32
2022-09-12T02:28:29.964Z,91.25
2022-09-12T02:31:20.538Z,91.65
2022-09-12T02:33:53.185Z,91.45
2022-09-12T02:36:34.939Z,91.29
2022-09-12T02:39:01.529Z,89.59
2022-09-12T02:41:28.227Z,90.56
2022-09-12T02:43:54.827Z,91.21
2022-09-12T02:46:39.018Z,91.92
2022-09-12T02:49:05.547Z,91.27
2022-09-12T02:51:32.923Z,91.42
2022-09-12T02:53:59.402Z,91.94
2022-09-12T02:56:28.952Z,91.52
2022-09-12T02:59:01.283Z,91.60
2022-09-12T03:01:46.730Z,91.53
2022-09-12T03:04:41.808Z,91.81
2022-09-12T03:07:19.750Z,92.73
2022-09-12T03:10:02.986Z,92.98
2022-09-12T03:13:15.545Z,93.08
2022-09-12T03:16:21.513Z,92.80
2022-09-12T03:19:03.568Z,92.07
2022-09-12T03:21:46.396Z,91.56
2022-09-12T03:24:40.787Z,92.33
2022-09-12T03:27:16.355Z,92.09
2022-09-12T03:29:46.235Z,92.63
2022-09-12T03:32:12.652Z,93.11
2022-09-12T03:34:39.078Z,93.52
2022-09-12T03:37:05.947Z,93.61
2022-09-12T03:39:33.075Z,93.14
2022-09-12T03:41:59.578Z,94.22
2022-09-12T03:44:26.184Z,94.37
2022-09-12T03:46:52.560Z,93.54
2022-09-12T03:49:18.940Z,93.23
2022-09-12T03:51:45.315Z,93.46
2022-09-12T03:54:11.864Z,92.89
2022-09-12T03:56:39.129Z,93.34
2022-09-12T03:59:06.794Z,93.57
2022-09-12T04:01:33.904Z,93.39
2022-09-12T04:04:00.389Z,93.71
2022-09-12T04:06:26.874Z,92.76
2022-09-12T04:08:55.134Z,92.84
2022-09-12T04:11:22.834Z,93.12
2022-09-12T04:13:49.933Z,92.69
2022-09-12T04:16:17.823Z,92.71
2022-09-12T04:18:45.199Z,92.54
2022-09-12T04:21:18.323Z,92.46
2022-09-12T04:23:45.301Z,92.01
2022-09-12T04:26:13.825Z,92.52
2022-09-12T04:28:41.214Z,93.72
2022-09-12T04:31:12.515Z,94.41
2022-09-12T04:33:39.725Z,94.16
2022-09-12T04:36:12.006Z,93.29
2022-09-12T04:38:38.651Z,93.56
2022-09-12T04:41:13.534Z,92.88
2022-09-12T04:43:40.274Z,92.92
2022-09-12T04:46:08.914Z,92.34
2022-09-12T04:48:35.572Z,93.54
2022-09-12T04:51:20.879Z,93.35
2022-09-12T04:53:52.668Z,92.86
2022-09-12T04:56:20.277Z,94.14
2022-09-12T04:58:47.273Z,94.79
2022-09-12T05:01:22.011Z,94.81
2022-09-12T05:03:49.680Z,94.74
2022-09-12T05:06:19.423Z,98.30
2022-09-12T05:08:46.134Z,98.77
2022-09-12T05:11:15.200Z,97.51
2022-09-12T05:13:41.608Z,95.94
2022-09-12T05:16:11.372Z,95.09
2022-09-12T05:18:38.374Z,94.68
2022-09-12T05:21:08.065Z,94.25
2022-09-12T05:23:34.712Z,93.55
2022-09-12T05:26:02.443Z,93.99
2022-09-12T05:28:39.059Z,93.76
2022-09-12T05:31:14.365Z,94.29
2022-09-12T05:33:43.090Z,93.58
2022-09-12T05:36:19.615Z,93.46
2022-09-12T05:38:47.302Z,93.02
2022-09-12T05:41:25.711Z,91.41
2022-09-12T05:43:53.955Z,91.78
2022-09-12T05:46:22.086Z,92.08
2022-09-12T05:48:55.150Z,90.42
2022-09-12T05:51:25.407Z,89.28
2022-09-12T05:54:00.251Z,87.49
2022-09-12T05:56:29.429Z,86.06
2022-09-12T05:58:59.012Z,85.23
2022-09-12T06:01:27.237Z,84.60
2022-09-12T06:03:55.862Z,83.92
2022-09-12T06:06:25.032Z,84.01
2022-09-12T06:08:53.734Z,83.32
2022-09-12T06:11:23.056Z,82.27
2022-09-12T06:13:50.943Z,81.56
2022-09-12T06:16:19.911Z,81.27
2022-09-12T06:18:54.601Z,80.03
2022-09-12T06:21:22.364Z,78.06
2022-09-12T06:23:49.290Z,76.20
2022-09-12T06:26:18.436Z,75.43
2022-09-12T06:28:45.477Z,74.87
2022-09-12T06:31:15.028Z,74.70
2022-09-12T06:33:44.978Z,74.91
2022-09-12T06:36:16.103Z,74.34
2022-09-12T06:38:43.091Z,74.25
2022-09-12T06:41:12.201Z,73.86
2022-09-12T06:43:39.903Z,73.45
2022-09-12T06:46:07.513Z,73.00
2022-09-12T06:48:36.412Z,71.37
2022-09-12T06:51:07.707Z,69.50
2022-09-12T06:53:34.710Z,66.94
2022-09-12T06:56:06.991Z,64.68
2022-09-12T06:58:34.980Z,63.11
2022-09-12T07:01:09.733Z,60.52
2022-09-12T07:03:37.133Z,56.98
2022-09-12T07:06:12.100Z,55.09
2022-09-12T07:08:39.512Z,54.30
2022-09-12T07:11:24.400Z,52.21
2022-09-12T07:13:56.262Z,50.23
2022-09-12T07:16:23.777Z,49.21
2022-09-12T07:18:55.631Z,48.46
2022-09-12T07:21:22.698Z,48.79
2022-09-12T07:23:49.559Z,48.59
2022-09-12T07:26:16.533Z,48.60
2022-09-12T07:28:43.377Z,47.89
2022-09-12T07:31:16.569Z,47.01
2022-09-12T07:33:44.047Z,47.98
2022-09-12T07:36:14.261Z,48.44
2022-09-12T07:38:41.400Z,46.44
2022-09-12T07:41:19.602Z,45.52
2022-09-12T07:43:46.444Z,44.70
2022-09-12T07:46:14.320Z,46.16
2022-09-12T07:48:41.031Z,46.40
2022-09-12T07:51:10.352Z,45.97
2022-09-12T07:53:39.194Z,45.91
2022-09-12T07:56:06.726Z,46.48
2022-09-12T07:58:35.176Z,45.42
2022-09-12T08:01:13.255Z,44.78
2022-09-12T08:03:40.808Z,44.47
2022-09-12T08:06:12.360Z,45.54
2022-09-12T08:08:38.997Z,47.22
2022-09-12T08:11:08.558Z,47.72
2022-09-12T08:13:37.339Z,50.06
2022-09-12T08:16:11.922Z,51.73
2022-09-12T08:18:39.274Z,52.22
2022-09-12T08:21:07.768Z,53.40
2022-09-12T08:23:34.464Z,53.54
2022-09-12T08:26:06.085Z,52.06
2022-09-12T08:28:35.005Z,51.26
2022-09-12T08:31:11.892Z,49.97
2022-09-12T08:33:38.777Z,50.58
2022-09-12T08:36:17.196Z,50.69
2022-09-12T08:38:45.730Z,51.02
2022-09-12T08:41:18.204Z,49.12
2022-09-12T08:44:08.750Z,48.39
2022-09-12T08:46:47.839Z,46.90
2022-09-12T08:49:20.274Z,48.16
2022-09-12T08:51:47.132Z,47.84
2022-09-12T08:54:24.254Z,46.94
2022-09-12T08:56:52.150Z,47.13
2022-09-12T08:59:18.613Z,46.78
2022-09-12T09:01:45.664Z,45.73
2022-09-12T09:04:28.917Z,45.20
2022-09-12T09:07:07.625Z,44.72
2022-09-12T09:09:46.572Z,45.01
2022-09-12T09:12:27.921Z,45.22
2022-09-12T09:15:43.746Z,45.48
2022-09-12T09:18:28.685Z,46.90
2022-09-12T09:20:59.754Z,47.54
2022-09-12T09:23:42.575Z,47.32
2022-09-12T09:26:22.552Z,47.64
2022-09-12T09:28:52.772Z,45.59
2022-09-12T09:31:22.286Z,45.70
2022-09-12T09:33:56.467Z,44.80
2022-09-12T09:36:30.546Z,47.61
2022-09-12T09:39:25.655Z,46.90
2022-09-12T09:42:14.181Z,46.04
2022-09-12T09:44:41.062Z,50.44
2022-09-12T09:47:12.565Z,47.35
2022-09-12T09:49:39.663Z,44.84
2022-09-12T09:52:08.603Z,45.07
2022-09-12T09:54:40.735Z,46.00
2022-09-12T09:57:38.989Z,47.17
2022-09-12T10:00:27.237Z,47.02
2022-09-12T10:03:25.609Z,45.42
2022-09-12T10:05:54.912Z,42.62
2022-09-12T10:08:24.524Z,45.43
2022-09-12T10:11:04.343Z,43.43
2022-09-12T10:13:41.834Z,41.18
2022-09-12T10:16:27.873Z,40.83
2022-09-12T10:18:57.087Z,42.72
2022-09-12T10:21:41.313Z,43.75
2022-09-12T10:24:24.257Z,45.19
2022-09-12T10:26:56.913Z,41.07
2022-09-12T10:29:31.400Z,39.11
2022-09-12T10:32:01.202Z,39.74
2022-09-12T10:34:33.796Z,41.35
2022-09-12T10:37:33.760Z,44.43
2022-09-12T10:40:02.023Z,42.71
2022-09-12T10:42:49.341Z,39.32
2022-09-12T10:45:20.146Z,37.79
2022-09-12T10:47:47.111Z,38.13
2022-09-12T10:50:22.993Z,39.84
2022-09-12T10:52:49.725Z,37.85
2022-09-12T10:55:16.476Z,44.11
2022-09-12T10:58:21.831Z,41.62
2022-09-12T11:00:57.403Z,41.15
2022-09-12T11:03:41.242Z,39.98
2022-09-12T11:06:10.516Z,38.44
2022-09-12T11:08:45.909Z,35.61
2022-09-12T11:11:15.290Z,35.96
2022-09-12T11:13:50.071Z,34.75
2022-09-12T11:16:41.065Z,36.75
2022-09-12T11:19:48.053Z,35.46
2022-09-12T11:22:31.928Z,36.86
2022-09-12T11:25:19.199Z,35.30
2022-09-12T11:27:51.618Z,36.15
2022-09-12T11:30:18.706Z,36.94
2022-09-12T11:32:56.664Z,35.36
2022-09-12T11:35:28.772Z,34.19
2022-09-12T11:38:13.731Z,33.14
2022-09-12T11:40:46.425Z,33.71
2022-09-12T11:43:40.163Z,31.36
2022-09-12T11:46:27.672Z,34.70
2022-09-12T11:49:04.682Z,34.40
2022-09-12T11:51:40.756Z,32.93
2022-09-12T11:54:49.033Z,34.07
2022-09-12T11:57:26.341Z,31.78
2022-09-12T12:00:14.929Z,30.83
2022-09-12T12:03:00.654Z,32.18
2022-09-12T12:05:57.592Z,31.02
2022-09-12T12:08:25.848Z,27.86
2022-09-12T12:11:00.978Z,26.80
2022-09-12T12:13:35.216Z,28.89
2022-09-12T12:16:14.908Z,29.98
2022-09-12T12:18:43.171Z,30.80
2022-09-12T12:21:34.918Z,32.32
2022-09-12T12:24:07.484Z,29.05
2022-09-12T12:26:40.275Z,28.20
2022-09-12T12:29:21.924Z,27.07
2022-09-12T12:32:06.287Z,25.74
2022-09-12T12:34:32.787Z,25.76
2022-09-12T12:37:19.828Z,29.36
2022-09-12T12:39:50.356Z,27.13
2022-09-12T12:42:46.650Z,29.44
2022-09-12T12:45:33.566Z,26.87
2022-09-12T12:48:08.872Z,28.35
2022-09-12T12:50:35.636Z,26.69
2022-09-12T12:53:18.116Z,26.67
2022-09-12T12:55:44.492Z,28.70
2022-09-12T12:58:35.085Z,27.35
2022-09-12T13:01:15.636Z,25.54
2022-09-12T13:03:46.681Z,27.10
2022-09-12T13:06:44.431Z,28.08
2022-09-12T13:09:32.630Z,30.07
2022-09-12T13:12:06.262Z,28.40
2022-09-12T13:14:58.282Z,27.67
2022-09-12T13:17:34.623Z,25.59
2022-09-12T13:20:26.759Z,26.82
2022-09-12T13:22:54.241Z,27.76
2022-09-12T13:25:33.017Z,26.41
2022-09-12T13:28:11.442Z,25.32
2022-09-12T13:30:42.675Z,25.47
2022-09-12T13:33:56.223Z,25.43
2022-09-12T13:36:38.146Z,28.28
2022-09-12T13:39:27.439Z,27.05
2022-09-12T13:42:18.970Z,25.19
2022-09-12T13:44:50.913Z,26.21
2022-09-12T13:47:27.346Z,29.35
2022-09-12T13:49:55.365Z,28.25
2022-09-12T13:52:26.256Z,30.12
2022-09-12T13:54:56.054Z,29.20
2022-09-12T13:57:30.617Z,30.32
2022-09-12T13:59:59.027Z,32.47
2022-09-12T14:02:28.664Z,29.71
2022-09-12T14:05:09.220Z,27.56
2022-09-12T14:08:01.409Z,27.42
2022-09-12T14:10:38.868Z,27.06
2022-09-12T14:13:13.222Z,28.46
2022-09-12T14:15:44.248Z,26.92
2022-09-12T14:18:23.486Z,27.28
2022-09-12T14:20:52.095Z,31.47
2022-09-12T14:23:29.082Z,30.33
2022-09-12T14:25:58.602Z,28.66
2022-09-12T14:28:28.236Z,27.44
2022-09-12T14:30:58.878Z,27.07
2022-09-12T14:33:25.826Z,28.74
2022-09-12T14:36:06.764Z,29.02
2022-09-12T14:38:49.338Z,29.57
2022-09-12T14:41:23.879Z,30.95
2022-09-12T14:43:54.474Z,28.84
2022-09-12T14:46:30.704Z,30.51
2022-09-12T14:49:31.199Z,30.49
2022-09-12T14:52:00.773Z,28.08
2022-09-12T14:54:33.769Z,31.33
2022-09-12T14:57:02.350Z,31.89
2022-09-12T14:59:34.694Z,31.81
2022-09-12T15:02:22.455Z,31.13
2022-09-12T15:04:51.693Z,30.47
2022-09-12T15:07:33.554Z,29.28
2022-09-12T15:10:02.299Z,32.58
2022-09-12T15:12:28.865Z,33.12
2022-09-12T15:15:04.010Z,34.64
2022-09-12T15:17:30.445Z,35.51
2022-09-12T15:19:56.869Z,36.03
2022-09-12T15:22:24.625Z,36.34
2022-09-12T15:24:51.018Z,38.38
2022-09-12T15:27:17.872Z,39.72
2022-09-12T15:29:44.382Z,38.70
2022-09-12T15:32:22.621Z,40.16
2022-09-12T15:34:49.351Z,40.23
2022-09-12T15:37:17.442Z,40.25
2022-09-12T15:39:46.844Z,40.38
2022-09-12T15:42:14.886Z,40.36
2022-09-12T15:44:41.967Z,41.29
2022-09-12T15:47:14.517Z,41.94
2022-09-12T15:49:41.302Z,40.39
2022-09-12T15:52:13.845Z,41.23
2022-09-12T15:54:41.016Z,40.29
2022-09-12T15:57:08.262Z,41.03
2022-09-12T15:59:34.657Z,41.78
2022-09-12T16:02:02.322Z,43.08
2022-09-12T16:04:30.535Z,42.31
2022-09-12T16:06:57.308Z,42.79
2022-09-12T16:09:24.364Z,42.82
2022-09-12T16:11:50.848Z,42.77
2022-09-12T16:14:18.795Z,44.17
2022-09-12T16:16:53.222Z,43.18
2022-09-12T16:19:20.062Z,44.28
2022-09-12T16:21:46.708Z,44.06
2022-09-12T16:24:13.092Z,43.97
2022-09-12T16:26:39.560Z,44.16
2022-09-12T16:29:06.078Z,44.17
2022-09-12T16:31:32.570Z,44.15
2022-09-12T16:33:59.151Z,44.62
2022-09-12T16:36:25.629Z,45.03
2022-09-12T16:38:53.771Z,45.34
2022-09-12T16:41:22.347Z,46.03
2022-09-12T16:43:48.816Z,45.18
2022-09-12T16:46:18.973Z,46.20
2022-09-12T16:48:52.677Z,45.97
2022-09-12T16:51:25.910Z,46.91
2022-09-12T16:53:53.690Z,47.69
2022-09-12T16:56:20.287Z,47.79
2022-09-12T16:58:47.824Z,47.70
2022-09-12T17:01:17.173Z,48.22
2022-09-12T17:03:44.210Z,50.41
2022-09-12T17:06:13.952Z,49.98
2022-09-12T17:08:48.528Z,50.38
2022-09-12T17:11:21.102Z,51.75
2022-09-12T17:14:04.498Z,52.21
2022-09-12T17:16:34.291Z,54.09
2022-09-12T17:19:00.932Z,54.49
2022-09-12T17:21:27.537Z,54.96
2022-09-12T17:23:54.359Z,56.14
2022-09-12T17:26:21.225Z,57.06
2022-09-12T17:28:48.170Z,58.02
2022-09-12T17:31:15.149Z,58.73
2022-09-12T17:33:42.129Z,59.47
2022-09-12T17:36:11.404Z,58.92
2022-09-12T17:38:42.177Z,58.55
2022-09-12T17:41:17.988Z,59.57
2022-09-12T17:43:54.616Z,60.69
2022-09-12T17:46:23.628Z,61.96
2022-09-12T17:48:54.836Z,61.76
2022-09-12T17:51:22.837Z,62.26
2022-09-12T17:53:49.347Z,62.73
2022-09-12T17:56:15.868Z,64.08
2022-09-12T17:58:42.464Z,65.24
2022-09-12T18:01:33.687Z,66.17
2022-09-12T18:04:01.297Z,66.01
2022-09-12T18:06:32.617Z,66.56
2022-09-12T18:09:03.905Z,67.30
2022-09-12T18:11:30.442Z,68.84
2022-09-12T18:13:58.851Z,69.46
2022-09-12T18:16:26.228Z,69.97
2022-09-12T18:18:52.689Z,70.59
2022-09-12T18:21:19.911Z,70.90
2022-09-12T18:23:47.340Z,72.01
2022-09-12T18:26:14.659Z,72.09
2022-09-12T18:28:43.797Z,72.27
2022-09-12T18:31:18.564Z,72.67
2022-09-12T18:33:46.326Z,72.87
2022-09-12T18:36:14.475Z,72.63
2022-09-12T18:38:41.943Z,72.65
2022-09-12T18:41:20.287Z,72.86
2022-09-12T18:43:47.729Z,73.24
2022-09-12T18:46:18.808Z,73.00
2022-09-12T18:48:46.117Z,73.52
2022-09-12T18:51:16.587Z,74.56
2022-09-12T18:53:43.727Z,74.19
2022-09-12T18:56:12.484Z,75.49
2022-09-12T18:58:41.657Z,75.54
2022-09-12T19:01:17.306Z,75.67
2022-09-12T19:03:45.619Z,75.92
2022-09-12T19:06:21.456Z,75.79
2022-09-12T19:08:49.261Z,76.51
2022-09-12T19:11:16.412Z,77.27
2022-09-12T19:13:45.642Z,77.38
2022-09-12T19:16:17.549Z,77.75
2022-09-12T19:18:44.723Z,77.72
2022-09-12T19:21:22.157Z,78.50
2022-09-12T19:23:49.546Z,78.93
2022-09-12T19:26:17.449Z,79.04
2022-09-12T19:28:45.245Z,78.98
2022-09-12T19:31:14.434Z,79.10
2022-09-12T19:33:41.948Z,79.54
2022-09-12T19:36:27.622Z,80.07
2022-09-12T19:38:58.020Z,80.30
2022-09-12T19:41:24.464Z,79.74
2022-09-12T19:43:50.897Z,79.97
2022-09-12T19:46:22.517Z,80.75
2022-09-12T19:48:49.548Z,80.38
2022-09-12T19:51:17.700Z,79.85
2022-09-12T19:53:45.341Z,80.92
2022-09-12T19:56:13.789Z,80.93
2022-09-12T19:58:43.464Z,80.78
2022-09-12T20:01:12.833Z,81.02
2022-09-12T20:03:39.922Z,81.26
2022-09-12T20:06:09.246Z,81.37
2022-09-12T20:08:42.518Z,81.91
2022-09-12T20:11:13.735Z,81.88
2022-09-12T20:13:41.272Z,83.00
2022-09-12T20:16:11.521Z,82.96
2022-09-12T20:18:38.818Z,82.73
2022-09-12T20:21:18.253Z,82.22
2022-09-12T20:23:46.093Z,83.33
2022-09-12T20:26:13.641Z,83.88
2022-09-12T20:28:41.258Z,84.38
2022-09-12T20:31:11.887Z,83.77
2022-09-12T20:33:38.846Z,84.39
2022-09-12T20:36:17.373Z,83.82
2022-09-12T20:38:52.180Z,84.56
2022-09-12T20:41:20.289Z,84.83
2022-09-12T20:43:51.274Z,84.97
2022-09-12T20:46:21.806Z,85.78
2022-09-12T20:48:59.533Z,85.09
2022-09-12T20:51:30.288Z,84.47
2022-09-12T20:54:01.551Z,85.18
2022-09-12T20:56:28.654Z,85.06
2022-09-12T20:58:55.861Z,85.16
2022-09-12T21:01:23.374Z,85.57
2022-09-12T21:03:50.293Z,86.11
2022-09-12T21:06:20.517Z,86.06
2022-09-12T21:08:48.451Z,85.57
2022-09-12T21:11:16.890Z,85.52
2022-09-12T21:13:43.734Z,85.32
2022-09-12T21:16:15.598Z,85.00
2022-09-12T21:18:42.845Z,86.10
2022-09-12T21:21:10.758Z,86.73
2022-09-12T21:23:37.337Z,86.81
2022-09-12T21:26:04.373Z,85.92
2022-09-12T21:28:31.370Z,86.56
2022-09-12T21:30:58.040Z,86.34
2022-09-12T21:33:24.853Z,86.47
2022-09-12T21:35:51.299Z,85.74
2022-09-12T21:38:19.210Z,85.76
2022-09-12T21:40:48.513Z,85.84
2022-09-12T21:43:15.327Z,85.91
2022-09-12T21:45:42.063Z,85.46
2022-09-12T21:48:08.478Z,85.97
2022-09-12T21:50:35.123Z,86.34
2022-09-12T21:53:01.658Z,86.92
2022-09-12T21:55:28.110Z,87.08
2022-09-12T21:57:55.372Z,86.76
2022-09-12T22:00:22.649Z,86.83
2022-09-12T22:02:49.273Z,86.06
2022-09-12T22:05:16.184Z,85.48
2022-09-12T22:07:42.610Z,87.63
2022-09-12T22:10:09.455Z,87.50
2022-09-12T22:12:35.897Z,87.00
2022-09-12T22:15:17.521Z,88.20
2022-09-12T22:17:49.011Z,88.48
2022-09-12T22:20:15.440Z,88.98
2022-09-12T22:23:00.125Z,88.54
2022-09-12T22:25:26.574Z,87.59
2022-09-12T22:27:54.147Z,86.90
2022-09-12T22:30:21.707Z,87.20
2022-09-12T22:32:49.977Z,86.97
2022-09-12T22:35:18.469Z,87.09
2022-09-12T22:37:47.034Z,86.62
2022-09-12T22:40:13.695Z,87.06
2022-09-12T22:42:40.420Z,87.11
2022-09-12T22:45:07.686Z,87.38
2022-09-12T22:47:34.099Z,87.58
2022-09-12T22:50:00.579Z,88.08
2022-09-12T22:52:27.020Z,87.57
2022-09-12T22:54:53.521Z,88.91
2022-09-12T22:57:19.950Z,88.26
2022-09-12T22:59:46.976Z,87.49
2022-09-12T23:02:13.595Z,87.27
2022-09-12T23:04:40.135Z,87.76
2022-09-12T23:07:06.595Z,88.03
2022-09-12T23:09:35.524Z,87.98
2022-09-12T23:12:02.517Z,88.13
2022-09-12T23:14:28.964Z,87.38
2022-09-12T23:16:55.508Z,86.99
2022-09-12T23:19:21.934Z,87.11
2022-09-12T23:21:48.374Z,87.14
2022-09-12T23:24:14.766Z,87.51
2022-09-12T23:26:41.163Z,88.01
2022-09-12T23:29:07.606Z,88.54
2022-09-12T23:31:34.374Z,88.42
2022-09-12T23:34:03.471Z,88.25
2022-09-12T23:36:30.223Z,87.53
2022-09-12T23:38:56.824Z,88.08
2022-09-12T23:41:23.439Z,88.42
2022-09-12T23:43:49.849Z,88.27
2022-09-12T23:46:17.648Z,88.25
2022-09-12T23:48:44.178Z,88.65
2022-09-12T23:51:11.338Z,87.82
2022-09-12T23:53:38.160Z,88.61
2022-09-12T23:56:05.535Z,88.51
2022-09-12T23:58:32.190Z,89.69
